sensor_id;sensor_type;location;lat;lon;timestamp;temperature;humidity
997;DHT22;487;50.126;8.698;2024-03-29T00:00:43;9.60;1.00
997;DHT22;487;50.126;8.698;2024-03-29T00:05:37;9.60;1.00
997;DHT22;487;50.126;8.698;2024-03-29T00:08:04;9.50;1.00
997;DHT22;487;50.126;8.698;2024-03-29T00:10:31;9.60;1.00
997;DHT22;487;50.126;8.698;2024-03-29T00:12:57;9.50;1.00
997;DHT22;487;50.126;8.698;2024-03-29T00:15:23;9.40;1.00
997;DHT22;487;50.126;8.698;2024-03-29T00:17:49;9.40;1.00
997;DHT22;487;50.126;8.698;2024-03-29T00:20:17;9.30;1.00
997;DHT22;487;50.126;8.698;2024-03-29T00:22:43;9.30;1.00
997;DHT22;487;50.126;8.698;2024-03-29T00:27:35;9.20;1.00
997;DHT22;487;50.126;8.698;2024-03-29T00:30:02;9.20;1.00
997;DHT22;487;50.126;8.698;2024-03-29T00:32:28;9.20;1.00
997;DHT22;487;50.126;8.698;2024-03-29T00:34:54;9.10;1.00
997;DHT22;487;50.126;8.698;2024-03-29T00:37:21;9.10;1.00
997;DHT22;487;50.126;8.698;2024-03-29T00:39:47;9.10;1.00
997;DHT22;487;50.126;8.698;2024-03-29T00:42:13;9.10;1.00
997;DHT22;487;50.126;8.698;2024-03-29T00:44:39;9.00;1.00
997;DHT22;487;50.126;8.698;2024-03-29T00:47:06;9.10;1.00
997;DHT22;487;50.126;8.698;2024-03-29T00:49:32;9.00;1.00
997;DHT22;487;50.126;8.698;2024-03-29T00:51:59;9.00;1.00
997;DHT22;487;50.126;8.698;2024-03-29T00:54:26;9.00;1.00
997;DHT22;487;50.126;8.698;2024-03-29T00:56:52;9.00;1.00
997;DHT22;487;50.126;8.698;2024-03-29T01:01:45;9.00;1.00
997;DHT22;487;50.126;8.698;2024-03-29T01:04:11;9.00;1.00
997;DHT22;487;50.126;8.698;2024-03-29T01:06:38;9.00;1.00
997;DHT22;487;50.126;8.698;2024-03-29T01:09:04;9.00;1.00
997;DHT22;487;50.126;8.698;2024-03-29T01:13:58;9.00;1.00
997;DHT22;487;50.126;8.698;2024-03-29T01:16:24;9.00;1.00
997;DHT22;487;50.126;8.698;2024-03-29T01:18:51;9.00;1.00
997;DHT22;487;50.126;8.698;2024-03-29T01:21:17;9.00;1.00
997;DHT22;487;50.126;8.698;2024-03-29T01:23:43;8.90;1.00
997;DHT22;487;50.126;8.698;2024-03-29T01:26:09;8.90;1.00
997;DHT22;487;50.126;8.698;2024-03-29T01:31:04;9.00;1.00
997;DHT22;487;50.126;8.698;2024-03-29T01:33:30;9.00;1.00
997;DHT22;487;50.126;8.698;2024-03-29T01:35:56;10.70;1.00
997;DHT22;487;50.126;8.698;2024-03-29T01:38:22;9.00;1.00
997;DHT22;487;50.126;8.698;2024-03-29T01:40:48;9.00;1.00
997;DHT22;487;50.126;8.698;2024-03-29T01:43:14;9.00;1.00
997;DHT22;487;50.126;8.698;2024-03-29T01:45:43;9.00;1.00
997;DHT22;487;50.126;8.698;2024-03-29T01:48:15;9.00;1.00
997;DHT22;487;50.126;8.698;2024-03-29T01:50:44;9.00;1.00
997;DHT22;487;50.126;8.698;2024-03-29T01:53:11;8.40;1.00
997;DHT22;487;50.126;8.698;2024-03-29T01:55:39;9.00;1.00
997;DHT22;487;50.126;8.698;2024-03-29T01:58:07;9.00;1.00
997;DHT22;487;50.126;8.698;2024-03-29T02:00:36;9.00;1.00
997;DHT22;487;50.126;8.698;2024-03-29T02:05:35;8.70;1.00
997;DHT22;487;50.126;8.698;2024-03-29T02:08:04;8.80;1.00
997;DHT22;487;50.126;8.698;2024-03-29T02:10:31;8.80;1.00
997;DHT22;487;50.126;8.698;2024-03-29T02:12:58;8.80;1.00
997;DHT22;487;50.126;8.698;2024-03-29T02:15:25;8.80;1.00
997;DHT22;487;50.126;8.698;2024-03-29T02:17:52;8.80;1.00
997;DHT22;487;50.126;8.698;2024-03-29T02:20:21;8.90;1.00
997;DHT22;487;50.126;8.698;2024-03-29T02:22:53;8.70;1.00
997;DHT22;487;50.126;8.698;2024-03-29T02:25:22;8.80;1.00
997;DHT22;487;50.126;8.698;2024-03-29T02:27:49;8.80;1.00
997;DHT22;487;50.126;8.698;2024-03-29T02:30:17;11.00;1.00
997;DHT22;487;50.126;8.698;2024-03-29T02:32:44;8.90;1.00
997;DHT22;487;50.126;8.698;2024-03-29T02:35:11;8.90;1.00
997;DHT22;487;50.126;8.698;2024-03-29T02:37:38;8.90;1.00
997;DHT22;487;50.126;8.698;2024-03-29T02:40:06;8.90;1.00
997;DHT22;487;50.126;8.698;2024-03-29T02:42:35;9.00;1.00
997;DHT22;487;50.126;8.698;2024-03-29T02:45:03;9.00;1.00
997;DHT22;487;50.126;8.698;2024-03-29T02:47:30;9.00;1.00
997;DHT22;487;50.126;8.698;2024-03-29T02:49:57;9.00;1.00
997;DHT22;487;50.126;8.698;2024-03-29T02:52:23;9.00;1.00
997;DHT22;487;50.126;8.698;2024-03-29T02:54:50;9.00;1.00
997;DHT22;487;50.126;8.698;2024-03-29T02:57:16;9.00;1.00
997;DHT22;487;50.126;8.698;2024-03-29T02:59:44;9.00;1.00
997;DHT22;487;50.126;8.698;2024-03-29T03:02:10;9.10;1.00
997;DHT22;487;50.126;8.698;2024-03-29T03:04:37;9.10;1.00
997;DHT22;487;50.126;8.698;2024-03-29T03:07:03;9.10;1.00
997;DHT22;487;50.126;8.698;2024-03-29T03:09:44;9.10;1.00
997;DHT22;487;50.126;8.698;2024-03-29T03:12:29;9.10;1.00
997;DHT22;487;50.126;8.698;2024-03-29T03:14:57;9.10;1.00
997;DHT22;487;50.126;8.698;2024-03-29T03:17:25;9.00;1.00
997;DHT22;487;50.126;8.698;2024-03-29T03:19:52;9.00;1.00
997;DHT22;487;50.126;8.698;2024-03-29T03:22:18;9.00;1.00
997;DHT22;487;50.126;8.698;2024-03-29T03:24:45;9.00;1.00
997;DHT22;487;50.126;8.698;2024-03-29T03:27:11;9.10;1.00
997;DHT22;487;50.126;8.698;2024-03-29T03:29:39;9.10;1.00
997;DHT22;487;50.126;8.698;2024-03-29T03:32:07;9.10;1.00
997;DHT22;487;50.126;8.698;2024-03-29T03:34:33;9.10;1.00
997;DHT22;487;50.126;8.698;2024-03-29T03:37:00;9.20;1.00
997;DHT22;487;50.126;8.698;2024-03-29T03:39:26;9.20;1.00
997;DHT22;487;50.126;8.698;2024-03-29T03:41:53;9.20;1.00
997;DHT22;487;50.126;8.698;2024-03-29T03:44:19;9.20;1.00
997;DHT22;487;50.126;8.698;2024-03-29T03:49:15;9.30;1.00
997;DHT22;487;50.126;8.698;2024-03-29T03:51:42;9.30;1.00
997;DHT22;487;50.126;8.698;2024-03-29T03:54:08;9.30;1.00
997;DHT22;487;50.126;8.698;2024-03-29T03:56:35;9.30;1.00
997;DHT22;487;50.126;8.698;2024-03-29T03:59:01;9.30;1.00
997;DHT22;487;50.126;8.698;2024-03-29T04:01:27;9.30;1.00
997;DHT22;487;50.126;8.698;2024-03-29T04:03:54;9.30;1.00
997;DHT22;487;50.126;8.698;2024-03-29T04:06:22;9.40;1.00
997;DHT22;487;50.126;8.698;2024-03-29T04:08:48;9.40;1.00
997;DHT22;487;50.126;8.698;2024-03-29T04:11:15;9.40;1.00
997;DHT22;487;50.126;8.698;2024-03-29T04:13:42;9.50;1.00
997;DHT22;487;50.126;8.698;2024-03-29T04:16:09;9.50;1.00
997;DHT22;487;50.126;8.698;2024-03-29T04:18:35;9.50;1.00
997;DHT22;487;50.126;8.698;2024-03-29T04:21:03;9.50;1.00
997;DHT22;487;50.126;8.698;2024-03-29T04:23:30;9.50;1.00
997;DHT22;487;50.126;8.698;2024-03-29T04:25:59;9.50;1.00
997;DHT22;487;50.126;8.698;2024-03-29T04:28:25;9.60;1.00
997;DHT22;487;50.126;8.698;2024-03-29T04:30:53;9.60;1.00
997;DHT22;487;50.126;8.698;2024-03-29T04:33:19;9.60;1.00
997;DHT22;487;50.126;8.698;2024-03-29T04:35:56;9.60;1.00
997;DHT22;487;50.126;8.698;2024-03-29T04:38:23;9.60;1.00
997;DHT22;487;50.126;8.698;2024-03-29T04:40:52;6.50;1.00
997;DHT22;487;50.126;8.698;2024-03-29T04:43:22;9.60;1.00
997;DHT22;487;50.126;8.698;2024-03-29T04:45:49;9.60;1.00
997;DHT22;487;50.126;8.698;2024-03-29T04:48:17;9.50;1.00
997;DHT22;487;50.126;8.698;2024-03-29T04:50:44;9.50;1.00
997;DHT22;487;50.126;8.698;2024-03-29T04:53:10;9.50;1.00
997;DHT22;487;50.126;8.698;2024-03-29T04:55:37;9.60;1.00
997;DHT22;487;50.126;8.698;2024-03-29T04:58:06;9.60;1.00
997;DHT22;487;50.126;8.698;2024-03-29T05:00:33;9.60;1.00
997;DHT22;487;50.126;8.698;2024-03-29T05:03:00;9.50;1.00
997;DHT22;487;50.126;8.698;2024-03-29T05:05:27;9.50;9.70
997;DHT22;487;50.126;8.698;2024-03-29T05:07:53;9.50;8.10
997;DHT22;487;50.126;8.698;2024-03-29T05:10:20;9.50;12.00
997;DHT22;487;50.126;8.698;2024-03-29T05:12:48;9.50;13.50
997;DHT22;487;50.126;8.698;2024-03-29T05:15:16;9.50;31.90
997;DHT22;487;50.126;8.698;2024-03-29T05:17:43;9.50;15.70
997;DHT22;487;50.126;8.698;2024-03-29T05:20:11;9.50;19.40
997;DHT22;487;50.126;8.698;2024-03-29T05:22:38;9.50;21.80
997;DHT22;487;50.126;8.698;2024-03-29T05:25:05;9.50;24.20
997;DHT22;487;50.126;8.698;2024-03-29T05:27:33;9.50;27.20
997;DHT22;487;50.126;8.698;2024-03-29T05:30:00;9.50;28.40
997;DHT22;487;50.126;8.698;2024-03-29T05:32:28;9.50;29.70
997;DHT22;487;50.126;8.698;2024-03-29T05:34:55;9.50;40.90
997;DHT22;487;50.126;8.698;2024-03-29T05:37:22;9.50;38.60
997;DHT22;487;50.126;8.698;2024-03-29T05:39:51;9.50;45.20
997;DHT22;487;50.126;8.698;2024-03-29T05:42:25;9.50;49.60
997;DHT22;487;50.126;8.698;2024-03-29T05:44:51;9.50;74.30
997;DHT22;487;50.126;8.698;2024-03-29T05:47:18;9.50;54.00
997;DHT22;487;50.126;8.698;2024-03-29T05:49:47;9.50;64.40
997;DHT22;487;50.126;8.698;2024-03-29T05:52:14;9.50;62.10
997;DHT22;487;50.126;8.698;2024-03-29T05:54:41;9.50;52.40
997;DHT22;487;50.126;8.698;2024-03-29T05:57:08;9.50;52.40
997;DHT22;487;50.126;8.698;2024-03-29T05:59:35;9.50;54.20
997;DHT22;487;50.126;8.698;2024-03-29T06:02:03;9.50;65.20
997;DHT22;487;50.126;8.698;2024-03-29T06:04:30;9.50;66.90
997;DHT22;487;50.126;8.698;2024-03-29T06:06:59;9.60;57.70
997;DHT22;487;50.126;8.698;2024-03-29T06:09:26;9.60;69.80
997;DHT22;487;50.126;8.698;2024-03-29T06:11:54;9.50;66.30
997;DHT22;487;50.126;8.698;2024-03-29T06:14:21;9.50;71.70
997;DHT22;487;50.126;8.698;2024-03-29T06:17:06;9.60;80.90
997;DHT22;487;50.126;8.698;2024-03-29T06:19:47;9.50;89.50
997;DHT22;487;50.126;8.698;2024-03-29T06:22:17;9.50;92.80
997;DHT22;487;50.126;8.698;2024-03-29T06:24:44;9.50;98.10
997;DHT22;487;50.126;8.698;2024-03-29T06:27:12;9.60;99.80
997;DHT22;487;50.126;8.698;2024-03-29T06:29:41;9.60;99.90
997;DHT22;487;50.126;8.698;2024-03-29T06:32:09;9.60;99.90
997;DHT22;487;50.126;8.698;2024-03-29T06:34:36;9.60;99.90
997;DHT22;487;50.126;8.698;2024-03-29T06:37:03;9.70;99.90
997;DHT22;487;50.126;8.698;2024-03-29T06:39:32;9.70;99.90
997;DHT22;487;50.126;8.698;2024-03-29T06:41:58;9.70;99.90
997;DHT22;487;50.126;8.698;2024-03-29T06:44:26;9.70;99.90
997;DHT22;487;50.126;8.698;2024-03-29T06:46:53;9.70;99.90
997;DHT22;487;50.126;8.698;2024-03-29T06:49:20;9.70;99.90
997;DHT22;487;50.126;8.698;2024-03-29T06:51:47;9.70;99.90
997;DHT22;487;50.126;8.698;2024-03-29T06:54:14;9.70;99.90
997;DHT22;487;50.126;8.698;2024-03-29T06:56:43;9.80;99.90
997;DHT22;487;50.126;8.698;2024-03-29T06:59:10;9.70;99.90
997;DHT22;487;50.126;8.698;2024-03-29T07:01:37;9.80;99.90
997;DHT22;487;50.126;8.698;2024-03-29T07:04:04;9.70;99.90
997;DHT22;487;50.126;8.698;2024-03-29T07:06:30;9.80;99.90
997;DHT22;487;50.126;8.698;2024-03-29T07:08:57;9.80;99.90
997;DHT22;487;50.126;8.698;2024-03-29T07:11:24;9.80;99.90
997;DHT22;487;50.126;8.698;2024-03-29T07:13:53;9.80;99.90
997;DHT22;487;50.126;8.698;2024-03-29T07:16:19;9.80;99.90
997;DHT22;487;50.126;8.698;2024-03-29T07:18:46;9.80;99.90
997;DHT22;487;50.126;8.698;2024-03-29T07:23:40;9.80;99.90
997;DHT22;487;50.126;8.698;2024-03-29T07:26:08;9.90;99.90
997;DHT22;487;50.126;8.698;2024-03-29T07:28:35;9.90;99.90
997;DHT22;487;50.126;8.698;2024-03-29T07:31:07;9.90;99.90
997;DHT22;487;50.126;8.698;2024-03-29T07:33:34;9.90;99.90
997;DHT22;487;50.126;8.698;2024-03-29T07:36:01;10.00;99.90
997;DHT22;487;50.126;8.698;2024-03-29T07:38:29;10.00;99.90
997;DHT22;487;50.126;8.698;2024-03-29T07:40:56;10.00;99.90
997;DHT22;487;50.126;8.698;2024-03-29T07:45:50;10.10;99.90
997;DHT22;487;50.126;8.698;2024-03-29T07:48:19;10.10;99.90
997;DHT22;487;50.126;8.698;2024-03-29T07:50:46;10.10;99.90
997;DHT22;487;50.126;8.698;2024-03-29T07:53:13;10.10;99.90
997;DHT22;487;50.126;8.698;2024-03-29T07:55:41;10.10;99.90
997;DHT22;487;50.126;8.698;2024-03-29T07:58:08;10.20;99.90
997;DHT22;487;50.126;8.698;2024-03-29T08:00:38;10.20;99.90
997;DHT22;487;50.126;8.698;2024-03-29T08:03:06;10.20;99.90
997;DHT22;487;50.126;8.698;2024-03-29T08:05:34;10.20;99.90
997;DHT22;487;50.126;8.698;2024-03-29T08:08:02;10.20;99.90
997;DHT22;487;50.126;8.698;2024-03-29T08:10:30;10.20;99.90
997;DHT22;487;50.126;8.698;2024-03-29T08:12:57;10.20;99.90
997;DHT22;487;50.126;8.698;2024-03-29T08:15:26;10.20;99.90
997;DHT22;487;50.126;8.698;2024-03-29T08:17:53;10.20;99.90
997;DHT22;487;50.126;8.698;2024-03-29T08:22:51;10.10;99.90
997;DHT22;487;50.126;8.698;2024-03-29T08:25:19;10.20;99.90
997;DHT22;487;50.126;8.698;2024-03-29T08:27:46;10.20;99.90
997;DHT22;487;50.126;8.698;2024-03-29T08:32:45;10.30;99.90
997;DHT22;487;50.126;8.698;2024-03-29T08:35:11;10.30;99.90
997;DHT22;487;50.126;8.698;2024-03-29T08:37:38;10.30;99.90
997;DHT22;487;50.126;8.698;2024-03-29T08:40:07;10.40;99.90
997;DHT22;487;50.126;8.698;2024-03-29T08:42:34;10.40;99.90
997;DHT22;487;50.126;8.698;2024-03-29T08:45:04;10.40;99.90
997;DHT22;487;50.126;8.698;2024-03-29T08:47:33;10.40;99.90
997;DHT22;487;50.126;8.698;2024-03-29T08:50:00;10.40;99.90
997;DHT22;487;50.126;8.698;2024-03-29T08:52:29;10.40;99.90
997;DHT22;487;50.126;8.698;2024-03-29T08:57:25;10.60;99.90
997;DHT22;487;50.126;8.698;2024-03-29T08:59:52;10.60;99.90
997;DHT22;487;50.126;8.698;2024-03-29T09:02:19;10.60;99.90
997;DHT22;487;50.126;8.698;2024-03-29T09:04:46;10.60;99.90
997;DHT22;487;50.126;8.698;2024-03-29T09:07:13;10.60;99.90
997;DHT22;487;50.126;8.698;2024-03-29T09:09:39;10.70;99.90
997;DHT22;487;50.126;8.698;2024-03-29T09:12:07;10.70;99.90
997;DHT22;487;50.126;8.698;2024-03-29T09:14:35;10.70;99.90
997;DHT22;487;50.126;8.698;2024-03-29T09:17:03;10.70;99.90
997;DHT22;487;50.126;8.698;2024-03-29T09:19:30;10.70;99.90
997;DHT22;487;50.126;8.698;2024-03-29T09:21:57;10.80;99.90
997;DHT22;487;50.126;8.698;2024-03-29T09:24:24;10.90;99.90
997;DHT22;487;50.126;8.698;2024-03-29T09:26:53;10.90;99.90
997;DHT22;487;50.126;8.698;2024-03-29T09:29:20;10.90;99.90
997;DHT22;487;50.126;8.698;2024-03-29T09:31:48;10.90;99.90
997;DHT22;487;50.126;8.698;2024-03-29T09:34:15;11.00;99.90
997;DHT22;487;50.126;8.698;2024-03-29T09:36:42;11.00;99.90
997;DHT22;487;50.126;8.698;2024-03-29T09:39:09;11.10;99.90
997;DHT22;487;50.126;8.698;2024-03-29T09:41:36;11.10;99.90
997;DHT22;487;50.126;8.698;2024-03-29T09:44:06;11.10;99.90
997;DHT22;487;50.126;8.698;2024-03-29T09:46:33;11.10;99.90
997;DHT22;487;50.126;8.698;2024-03-29T09:49:05;11.20;99.90
997;DHT22;487;50.126;8.698;2024-03-29T09:51:32;11.20;99.90
997;DHT22;487;50.126;8.698;2024-03-29T09:54:01;11.20;99.90
997;DHT22;487;50.126;8.698;2024-03-29T09:56:30;11.20;99.90
997;DHT22;487;50.126;8.698;2024-03-29T09:58:57;11.30;99.90
997;DHT22;487;50.126;8.698;2024-03-29T10:01:24;11.20;99.90
997;DHT22;487;50.126;8.698;2024-03-29T10:03:53;11.30;99.90
997;DHT22;487;50.126;8.698;2024-03-29T10:06:24;11.30;99.90
997;DHT22;487;50.126;8.698;2024-03-29T10:08:51;11.30;99.90
997;DHT22;487;50.126;8.698;2024-03-29T10:11:20;11.30;99.90
997;DHT22;487;50.126;8.698;2024-03-29T10:13:47;11.30;99.90
997;DHT22;487;50.126;8.698;2024-03-29T10:16:18;11.40;99.90
997;DHT22;487;50.126;8.698;2024-03-29T10:18:48;11.50;99.90
997;DHT22;487;50.126;8.698;2024-03-29T10:21:15;11.50;99.90
997;DHT22;487;50.126;8.698;2024-03-29T10:23:43;11.70;99.90
997;DHT22;487;50.126;8.698;2024-03-29T10:26:12;11.70;99.90
997;DHT22;487;50.126;8.698;2024-03-29T10:28:39;11.80;99.90
997;DHT22;487;50.126;8.698;2024-03-29T10:36:03;11.90;99.90
997;DHT22;487;50.126;8.698;2024-03-29T10:38:32;11.90;99.90
997;DHT22;487;50.126;8.698;2024-03-29T10:41:00;11.90;99.90
997;DHT22;487;50.126;8.698;2024-03-29T10:43:29;12.00;99.90
997;DHT22;487;50.126;8.698;2024-03-29T10:53:23;11.90;99.90
997;DHT22;487;50.126;8.698;2024-03-29T10:55:54;11.90;99.90
997;DHT22;487;50.126;8.698;2024-03-29T10:58:25;11.90;99.90
997;DHT22;487;50.126;8.698;2024-03-29T11:00:57;11.90;99.90
997;DHT22;487;50.126;8.698;2024-03-29T11:03:30;11.90;99.90
997;DHT22;487;50.126;8.698;2024-03-29T11:06:02;11.90;99.90
997;DHT22;487;50.126;8.698;2024-03-29T11:08:32;11.90;99.90
997;DHT22;487;50.126;8.698;2024-03-29T11:11:02;12.10;99.90
997;DHT22;487;50.126;8.698;2024-03-29T11:13:34;12.10;99.90
997;DHT22;487;50.126;8.698;2024-03-29T11:16:04;12.20;99.90
997;DHT22;487;50.126;8.698;2024-03-29T11:18:32;12.20;99.90
997;DHT22;487;50.126;8.698;2024-03-29T11:21:00;12.20;99.90
997;DHT22;487;50.126;8.698;2024-03-29T11:25:55;12.30;99.90
997;DHT22;487;50.126;8.698;2024-03-29T11:28:25;12.40;99.90
997;DHT22;487;50.126;8.698;2024-03-29T11:31:00;12.50;99.90
997;DHT22;487;50.126;8.698;2024-03-29T11:33:34;12.50;99.90
997;DHT22;487;50.126;8.698;2024-03-29T11:36:11;12.60;99.90
997;DHT22;487;50.126;8.698;2024-03-29T11:38:39;12.60;99.90
997;DHT22;487;50.126;8.698;2024-03-29T11:41:11;12.70;99.90
997;DHT22;487;50.126;8.698;2024-03-29T11:43:39;12.70;99.90
997;DHT22;487;50.126;8.698;2024-03-29T11:46:09;12.80;99.90
997;DHT22;487;50.126;8.698;2024-03-29T11:48:37;12.90;99.90
997;DHT22;487;50.126;8.698;2024-03-29T11:51:05;12.80;99.90
997;DHT22;487;50.126;8.698;2024-03-29T11:53:34;12.80;99.90
997;DHT22;487;50.126;8.698;2024-03-29T11:56:02;12.70;99.90
997;DHT22;487;50.126;8.698;2024-03-29T11:58:31;12.60;99.90
997;DHT22;487;50.126;8.698;2024-03-29T12:00:59;12.50;99.90
997;DHT22;487;50.126;8.698;2024-03-29T12:03:29;12.40;99.90
997;DHT22;487;50.126;8.698;2024-03-29T12:05:57;12.30;99.90
997;DHT22;487;50.126;8.698;2024-03-29T12:08:30;12.20;99.90
997;DHT22;487;50.126;8.698;2024-03-29T12:25:50;12.00;99.90
997;DHT22;487;50.126;8.698;2024-03-29T12:40:41;12.20;99.90
997;DHT22;487;50.126;8.698;2024-03-29T12:43:10;12.30;99.90
997;DHT22;487;50.126;8.698;2024-03-29T12:45:39;12.30;99.90
997;DHT22;487;50.126;8.698;2024-03-29T12:48:10;12.40;99.90
997;DHT22;487;50.126;8.698;2024-03-29T12:50:39;12.50;99.90
997;DHT22;487;50.126;8.698;2024-03-29T12:53:08;12.50;99.90
997;DHT22;487;50.126;8.698;2024-03-29T12:58:05;12.60;99.90
997;DHT22;487;50.126;8.698;2024-03-29T13:00:35;12.60;99.90
997;DHT22;487;50.126;8.698;2024-03-29T13:03:02;12.70;99.90
997;DHT22;487;50.126;8.698;2024-03-29T13:05:29;12.60;99.90
997;DHT22;487;50.126;8.698;2024-03-29T13:08:00;12.60;99.90
997;DHT22;487;50.126;8.698;2024-03-29T13:10:28;13.70;99.90
997;DHT22;487;50.126;8.698;2024-03-29T13:12:57;12.70;99.90
997;DHT22;487;50.126;8.698;2024-03-29T13:15:25;12.60;99.90
997;DHT22;487;50.126;8.698;2024-03-29T13:17:53;12.70;99.90
997;DHT22;487;50.126;8.698;2024-03-29T13:20:21;12.70;99.90
997;DHT22;487;50.126;8.698;2024-03-29T13:22:49;12.70;99.90
997;DHT22;487;50.126;8.698;2024-03-29T13:25:17;12.70;99.90
997;DHT22;487;50.126;8.698;2024-03-29T13:27:46;12.80;99.90
997;DHT22;487;50.126;8.698;2024-03-29T13:32:42;12.90;99.90
997;DHT22;487;50.126;8.698;2024-03-29T13:37:38;13.00;99.90
997;DHT22;487;50.126;8.698;2024-03-29T13:40:06;13.10;99.90
997;DHT22;487;50.126;8.698;2024-03-29T13:42:34;13.10;99.90
997;DHT22;487;50.126;8.698;2024-03-29T13:45:01;13.10;99.90
997;DHT22;487;50.126;8.698;2024-03-29T13:47:29;13.10;99.90
997;DHT22;487;50.126;8.698;2024-03-29T13:54:52;13.20;99.90
997;DHT22;487;50.126;8.698;2024-03-29T13:57:19;13.20;99.90
997;DHT22;487;50.126;8.698;2024-03-29T13:59:46;13.20;99.90
997;DHT22;487;50.126;8.698;2024-03-29T14:02:15;13.20;99.90
997;DHT22;487;50.126;8.698;2024-03-29T14:22:22;13.30;99.90
997;DHT22;487;50.126;8.698;2024-03-29T14:24:50;13.30;99.90
997;DHT22;487;50.126;8.698;2024-03-29T14:27:17;13.40;99.90
997;DHT22;487;50.126;8.698;2024-03-29T14:29:44;13.40;99.90
997;DHT22;487;50.126;8.698;2024-03-29T14:34:39;13.50;99.90
997;DHT22;487;50.126;8.698;2024-03-29T14:39:42;13.50;99.90
997;DHT22;487;50.126;8.698;2024-03-29T14:44:39;13.40;99.90
997;DHT22;487;50.126;8.698;2024-03-29T14:47:06;13.50;99.90
997;DHT22;487;50.126;8.698;2024-03-29T14:49:33;13.50;99.90
997;DHT22;487;50.126;8.698;2024-03-29T14:52:00;13.50;99.90
997;DHT22;487;50.126;8.698;2024-03-29T14:59:26;13.60;99.90
997;DHT22;487;50.126;8.698;2024-03-29T15:09:51;13.70;99.90
997;DHT22;487;50.126;8.698;2024-03-29T15:12:18;13.70;99.90
997;DHT22;487;50.126;8.698;2024-03-29T15:14:45;13.70;99.90
997;DHT22;487;50.126;8.698;2024-03-29T15:17:11;13.60;99.90
997;DHT22;487;50.126;8.698;2024-03-29T15:19:38;13.70;99.90
997;DHT22;487;50.126;8.698;2024-03-29T15:44:33;13.40;99.90
997;DHT22;487;50.126;8.698;2024-03-29T16:17:50;13.10;99.90
997;DHT22;487;50.126;8.698;2024-03-29T16:20:17;13.10;99.90
997;DHT22;487;50.126;8.698;2024-03-29T16:22:43;12.90;99.90
997;DHT22;487;50.126;8.698;2024-03-29T16:27:36;12.90;99.90
997;DHT22;487;50.126;8.698;2024-03-29T16:32:31;13.00;99.90
997;DHT22;487;50.126;8.698;2024-03-29T16:35:00;13.60;99.90
997;DHT22;487;50.126;8.698;2024-03-29T16:37:26;12.80;99.90
997;DHT22;487;50.126;8.698;2024-03-29T16:39:53;12.80;99.90
997;DHT22;487;50.126;8.698;2024-03-29T16:42:19;12.80;99.90
997;DHT22;487;50.126;8.698;2024-03-29T16:44:46;12.80;99.90
997;DHT22;487;50.126;8.698;2024-03-29T16:47:12;12.90;99.90
997;DHT22;487;50.126;8.698;2024-03-29T16:49:40;12.90;99.90
997;DHT22;487;50.126;8.698;2024-03-29T16:52:06;12.90;1.00
997;DHT22;487;50.126;8.698;2024-03-29T16:54:33;12.90;1.00
997;DHT22;487;50.126;8.698;2024-03-29T16:56:59;12.90;1.00
997;DHT22;487;50.126;8.698;2024-03-29T16:59:27;12.90;1.00
997;DHT22;487;50.126;8.698;2024-03-29T17:01:54;12.90;1.00
997;DHT22;487;50.126;8.698;2024-03-29T17:04:21;12.90;1.00
997;DHT22;487;50.126;8.698;2024-03-29T17:06:48;12.90;1.00
997;DHT22;487;50.126;8.698;2024-03-29T17:09:34;12.80;1.00
997;DHT22;487;50.126;8.698;2024-03-29T17:12:00;12.90;1.00
997;DHT22;487;50.126;8.698;2024-03-29T17:14:28;12.90;1.00
997;DHT22;487;50.126;8.698;2024-03-29T17:19:25;13.00;1.00
997;DHT22;487;50.126;8.698;2024-03-29T17:21:53;13.00;1.00
997;DHT22;487;50.126;8.698;2024-03-29T17:24:20;13.00;1.00
997;DHT22;487;50.126;8.698;2024-03-29T17:26:46;13.00;1.00
997;DHT22;487;50.126;8.698;2024-03-29T17:29:13;13.10;1.00
997;DHT22;487;50.126;8.698;2024-03-29T17:31:41;13.10;1.00
997;DHT22;487;50.126;8.698;2024-03-29T17:34:09;13.00;1.00
997;DHT22;487;50.126;8.698;2024-03-29T17:39:04;13.00;1.00
997;DHT22;487;50.126;8.698;2024-03-29T17:41:31;13.00;1.00
997;DHT22;487;50.126;8.698;2024-03-29T17:43:58;13.00;1.00
997;DHT22;487;50.126;8.698;2024-03-29T17:46:25;12.90;1.00
997;DHT22;487;50.126;8.698;2024-03-29T17:48:52;12.90;1.00
997;DHT22;487;50.126;8.698;2024-03-29T17:51:18;12.90;1.00
997;DHT22;487;50.126;8.698;2024-03-29T17:53:45;12.90;1.00
997;DHT22;487;50.126;8.698;2024-03-29T17:56:12;12.80;1.00
997;DHT22;487;50.126;8.698;2024-03-29T17:58:39;12.80;1.00
997;DHT22;487;50.126;8.698;2024-03-29T18:01:05;12.80;1.00
997;DHT22;487;50.126;8.698;2024-03-29T18:03:32;12.80;1.00
997;DHT22;487;50.126;8.698;2024-03-29T18:05:58;12.70;1.00
997;DHT22;487;50.126;8.698;2024-03-29T18:08:25;12.60;1.00
997;DHT22;487;50.126;8.698;2024-03-29T18:10:50;12.60;1.00
997;DHT22;487;50.126;8.698;2024-03-29T18:15:46;12.50;1.00
997;DHT22;487;50.126;8.698;2024-03-29T18:23:07;12.40;1.00
997;DHT22;487;50.126;8.698;2024-03-29T18:25:33;12.40;1.00
997;DHT22;487;50.126;8.698;2024-03-29T18:28:01;12.40;1.00
997;DHT22;487;50.126;8.698;2024-03-29T18:32:57;12.40;1.00
997;DHT22;487;50.126;8.698;2024-03-29T18:35:23;12.30;1.00
997;DHT22;487;50.126;8.698;2024-03-29T18:37:50;12.30;1.00
997;DHT22;487;50.126;8.698;2024-03-29T18:40:16;12.20;1.00
997;DHT22;487;50.126;8.698;2024-03-29T18:42:45;12.20;1.00
997;DHT22;487;50.126;8.698;2024-03-29T18:45:12;12.20;1.00
997;DHT22;487;50.126;8.698;2024-03-29T18:47:40;12.10;1.00
997;DHT22;487;50.126;8.698;2024-03-29T18:50:06;12.10;1.00
997;DHT22;487;50.126;8.698;2024-03-29T18:52:34;12.00;1.00
997;DHT22;487;50.126;8.698;2024-03-29T18:55:00;12.00;1.00
997;DHT22;487;50.126;8.698;2024-03-29T18:59:53;11.90;1.00
997;DHT22;487;50.126;8.698;2024-03-29T19:02:20;11.90;1.00
997;DHT22;487;50.126;8.698;2024-03-29T19:07:15;11.90;1.00
997;DHT22;487;50.126;8.698;2024-03-29T19:09:41;11.90;1.00
997;DHT22;487;50.126;8.698;2024-03-29T19:12:08;11.90;1.00
997;DHT22;487;50.126;8.698;2024-03-29T19:14:34;11.90;1.00
997;DHT22;487;50.126;8.698;2024-03-29T19:17:01;12.00;1.00
997;DHT22;487;50.126;8.698;2024-03-29T19:19:27;12.00;1.00
997;DHT22;487;50.126;8.698;2024-03-29T19:21:55;12.00;1.00
997;DHT22;487;50.126;8.698;2024-03-29T19:24:22;12.00;1.00
997;DHT22;487;50.126;8.698;2024-03-29T19:26:51;11.90;1.00
997;DHT22;487;50.126;8.698;2024-03-29T19:34:11;11.90;1.00
997;DHT22;487;50.126;8.698;2024-03-29T19:36:38;11.90;1.00
997;DHT22;487;50.126;8.698;2024-03-29T19:39:05;11.90;1.00
997;DHT22;487;50.126;8.698;2024-03-29T19:41:35;11.90;1.00
997;DHT22;487;50.126;8.698;2024-03-29T19:44:00;11.90;1.00
997;DHT22;487;50.126;8.698;2024-03-29T19:46:29;11.30;1.00
997;DHT22;487;50.126;8.698;2024-03-29T19:48:55;11.80;1.00
997;DHT22;487;50.126;8.698;2024-03-29T19:51:22;11.80;1.00
997;DHT22;487;50.126;8.698;2024-03-29T19:58:45;11.80;1.00
997;DHT22;487;50.126;8.698;2024-03-29T20:03:38;11.70;1.00
997;DHT22;487;50.126;8.698;2024-03-29T20:06:05;11.70;1.00
997;DHT22;487;50.126;8.698;2024-03-29T20:08:31;11.70;1.00
997;DHT22;487;50.126;8.698;2024-03-29T20:10:59;11.70;1.00
997;DHT22;487;50.126;8.698;2024-03-29T20:13:28;11.70;1.00
997;DHT22;487;50.126;8.698;2024-03-29T20:15:58;11.70;1.00
997;DHT22;487;50.126;8.698;2024-03-29T20:18:25;11.70;1.00
997;DHT22;487;50.126;8.698;2024-03-29T20:20:52;11.70;1.00
997;DHT22;487;50.126;8.698;2024-03-29T20:23:19;11.70;1.00